sensor_id;sensor_type;location;lat;lon;timestamp;P1;durP1;ratioP1;P2;durP2;ratioP2
18997;SDS011;9632;51.018;4.284;2023-05-10T00:00:12;12.13;;;5.18;;
18997;SDS011;9632;51.018;4.284;2023-05-10T00:02:38;12.15;;;5.75;;
18997;SDS011;9632;51.018;4.284;2023-05-10T00:05:05;17.90;;;5.97;;
18997;SDS011;9632;51.018;4.284;2023-05-10T00:07:31;16.52;;;6.72;;
18997;SDS011;9632;51.018;4.284;2023-05-10T00:09:57;17.55;;;6.75;;
18997;SDS011;9632;51.018;4.284;2023-05-10T00:12:23;12.88;;;5.88;;
18997;SDS011;9632;51.018;4.284;2023-05-10T00:14:48;13.13;;;5.82;;
18997;SDS011;9632;51.018;4.284;2023-05-10T00:17:14;14.05;;;6.05;;
18997;SDS011;9632;51.018;4.284;2023-05-10T00:19:40;14.32;;;6.70;;
18997;SDS011;9632;51.018;4.284;2023-05-10T00:22:05;13.88;;;5.93;;
18997;SDS011;9632;51.018;4.284;2023-05-10T00:24:31;12.15;;;6.10;;
18997;SDS011;9632;51.018;4.284;2023-05-10T00:26:56;15.40;;;7.10;;
18997;SDS011;9632;51.018;4.284;2023-05-10T00:29:22;16.05;;;6.85;;
18997;SDS011;9632;51.018;4.284;2023-05-10T00:31:48;14.23;;;6.82;;
18997;SDS011;9632;51.018;4.284;2023-05-10T00:34:13;17.85;;;7.47;;
18997;SDS011;9632;51.018;4.284;2023-05-10T00:36:39;16.27;;;7.72;;
18997;SDS011;9632;51.018;4.284;2023-05-10T00:39:05;14.05;;;6.75;;
18997;SDS011;9632;51.018;4.284;2023-05-10T00:41:31;17.60;;;7.78;;
18997;SDS011;9632;51.018;4.284;2023-05-10T00:43:57;15.25;;;7.15;;
18997;SDS011;9632;51.018;4.284;2023-05-10T00:46:23;15.13;;;7.65;;
18997;SDS011;9632;51.018;4.284;2023-05-10T00:48:49;15.82;;;7.30;;
18997;SDS011;9632;51.018;4.284;2023-05-10T00:51:15;17.80;;;7.55;;
18997;SDS011;9632;51.018;4.284;2023-05-10T00:53:41;13.75;;;6.82;;
18997;SDS011;9632;51.018;4.284;2023-05-10T00:56:07;16.85;;;7.63;;
18997;SDS011;9632;51.018;4.284;2023-05-10T00:58:33;13.52;;;7.43;;
18997;SDS011;9632;51.018;4.284;2023-05-10T01:00:59;13.10;;;7.03;;
18997;SDS011;9632;51.018;4.284;2023-05-10T01:03:26;13.13;;;7.00;;
18997;SDS011;9632;51.018;4.284;2023-05-10T01:05:52;19.13;;;8.25;;
18997;SDS011;9632;51.018;4.284;2023-05-10T01:08:18;14.50;;;7.60;;
18997;SDS011;9632;51.018;4.284;2023-05-10T01:10:44;13.77;;;7.38;;
18997;SDS011;9632;51.018;4.284;2023-05-10T01:13:10;16.10;;;6.70;;
18997;SDS011;9632;51.018;4.284;2023-05-10T01:15:37;12.13;;;6.05;;
18997;SDS011;9632;51.018;4.284;2023-05-10T01:18:04;11.40;;;6.28;;
18997;SDS011;9632;51.018;4.284;2023-05-10T01:20:34;11.90;;;6.20;;
18997;SDS011;9632;51.018;4.284;2023-05-10T01:23:10;13.57;;;6.53;;
18997;SDS011;9632;51.018;4.284;2023-05-10T01:26:04;10.50;;;6.30;;
18997;SDS011;9632;51.018;4.284;2023-05-10T01:31:57;12.05;;;6.55;;
18997;SDS011;9632;51.018;4.284;2023-05-10T01:34:39;16.92;;;6.85;;
18997;SDS011;9632;51.018;4.284;2023-05-10T01:37:31;14.45;;;6.95;;
18997;SDS011;9632;51.018;4.284;2023-05-10T01:40:53;16.58;;;7.30;;
18997;SDS011;9632;51.018;4.284;2023-05-10T01:43:02;14.40;;;7.35;;
18997;SDS011;9632;51.018;4.284;2023-05-10T01:45:31;15.07;;;7.55;;
18997;SDS011;9632;51.018;4.284;2023-05-10T01:48:06;17.55;;;8.43;;
18997;SDS011;9632;51.018;4.284;2023-05-10T01:50:37;13.40;;;7.03;;
18997;SDS011;9632;51.018;4.284;2023-05-10T01:53:08;16.08;;;8.50;;
18997;SDS011;9632;51.018;4.284;2023-05-10T01:55:39;16.95;;;8.32;;
18997;SDS011;9632;51.018;4.284;2023-05-10T01:58:10;18.95;;;9.40;;
18997;SDS011;9632;51.018;4.284;2023-05-10T02:00:39;20.38;;;8.57;;
18997;SDS011;9632;51.018;4.284;2023-05-10T02:03:08;18.73;;;8.95;;
18997;SDS011;9632;51.018;4.284;2023-05-10T02:05:36;17.70;;;9.38;;
18997;SDS011;9632;51.018;4.284;2023-05-10T02:08:03;19.42;;;9.40;;
18997;SDS011;9632;51.018;4.284;2023-05-10T02:10:32;20.63;;;10.25;;
18997;SDS011;9632;51.018;4.284;2023-05-10T02:13:02;16.90;;;9.38;;
18997;SDS011;9632;51.018;4.284;2023-05-10T02:15:28;19.48;;;9.43;;
18997;SDS011;9632;51.018;4.284;2023-05-10T02:17:55;20.98;;;10.93;;
18997;SDS011;9632;51.018;4.284;2023-05-10T02:20:22;21.83;;;10.73;;
18997;SDS011;9632;51.018;4.284;2023-05-10T02:22:50;22.33;;;10.00;;
18997;SDS011;9632;51.018;4.284;2023-05-10T02:25:19;20.30;;;10.18;;
18997;SDS011;9632;51.018;4.284;2023-05-10T02:27:46;19.98;;;10.57;;
18997;SDS011;9632;51.018;4.284;2023-05-10T02:30:13;24.98;;;12.82;;
18997;SDS011;9632;51.018;4.284;2023-05-10T02:32:39;26.80;;;12.77;;
18997;SDS011;9632;51.018;4.284;2023-05-10T02:35:07;24.27;;;13.25;;
18997;SDS011;9632;51.018;4.284;2023-05-10T02:37:35;36.15;;;14.13;;
18997;SDS011;9632;51.018;4.284;2023-05-10T02:40:02;24.90;;;13.18;;
18997;SDS011;9632;51.018;4.284;2023-05-10T02:42:31;27.15;;;14.20;;
18997;SDS011;9632;51.018;4.284;2023-05-10T02:45:00;28.20;;;14.43;;
18997;SDS011;9632;51.018;4.284;2023-05-10T02:47:28;31.67;;;14.85;;
18997;SDS011;9632;51.018;4.284;2023-05-10T02:49:54;32.38;;;16.08;;
18997;SDS011;9632;51.018;4.284;2023-05-10T02:52:25;26.00;;;14.05;;
18997;SDS011;9632;51.018;4.284;2023-05-10T02:54:55;28.50;;;14.18;;
18997;SDS011;9632;51.018;4.284;2023-05-10T02:57:27;30.42;;;16.23;;
18997;SDS011;9632;51.018;4.284;2023-05-10T02:59:58;32.58;;;16.50;;
18997;SDS011;9632;51.018;4.284;2023-05-10T03:02:25;32.85;;;16.98;;
18997;SDS011;9632;51.018;4.284;2023-05-10T03:04:51;30.52;;;16.17;;
18997;SDS011;9632;51.018;4.284;2023-05-10T03:07:16;33.35;;;16.58;;
18997;SDS011;9632;51.018;4.284;2023-05-10T03:09:44;32.00;;;16.33;;
18997;SDS011;9632;51.018;4.284;2023-05-10T03:20:46;38.53;;;18.27;;
18997;SDS011;9632;51.018;4.284;2023-05-10T03:23:26;45.15;;;20.15;;
18997;SDS011;9632;51.018;4.284;2023-05-10T03:25:55;39.35;;;19.02;;
18997;SDS011;9632;51.018;4.284;2023-05-10T03:28:22;38.40;;;19.60;;
18997;SDS011;9632;51.018;4.284;2023-05-10T03:30:52;36.47;;;18.73;;
18997;SDS011;9632;51.018;4.284;2023-05-10T03:33:21;41.05;;;19.15;;
18997;SDS011;9632;51.018;4.284;2023-05-10T03:35:47;39.72;;;19.00;;
18997;SDS011;9632;51.018;4.284;2023-05-10T03:38:13;41.28;;;19.38;;
18997;SDS011;9632;51.018;4.284;2023-05-10T03:40:39;40.88;;;18.92;;
18997;SDS011;9632;51.018;4.284;2023-05-10T03:43:04;44.63;;;19.80;;
18997;SDS011;9632;51.018;4.284;2023-05-10T03:45:30;46.58;;;21.20;;
18997;SDS011;9632;51.018;4.284;2023-05-10T03:47:57;40.85;;;19.25;;
18997;SDS011;9632;51.018;4.284;2023-05-10T03:50:23;45.17;;;20.45;;
18997;SDS011;9632;51.018;4.284;2023-05-10T03:52:49;41.40;;;18.85;;
18997;SDS011;9632;51.018;4.284;2023-05-10T03:55:14;42.13;;;19.02;;
18997;SDS011;9632;51.018;4.284;2023-05-10T03:57:41;44.53;;;19.73;;
18997;SDS011;9632;51.018;4.284;2023-05-10T04:00:06;45.72;;;20.63;;
18997;SDS011;9632;51.018;4.284;2023-05-10T04:02:33;36.63;;;17.90;;
18997;SDS011;9632;51.018;4.284;2023-05-10T04:04:58;41.10;;;19.25;;
18997;SDS011;9632;51.018;4.284;2023-05-10T04:07:24;41.17;;;19.30;;
18997;SDS011;9632;51.018;4.284;2023-05-10T04:09:50;40.00;;;19.30;;
18997;SDS011;9632;51.018;4.284;2023-05-10T04:12:16;41.38;;;19.63;;
18997;SDS011;9632;51.018;4.284;2023-05-10T04:14:41;37.92;;;18.88;;
18997;SDS011;9632;51.018;4.284;2023-05-10T04:17:07;38.00;;;19.45;;
18997;SDS011;9632;51.018;4.284;2023-05-10T04:19:32;41.15;;;19.92;;
18997;SDS011;9632;51.018;4.284;2023-05-10T04:21:58;35.58;;;18.17;;
18997;SDS011;9632;51.018;4.284;2023-05-10T04:24:24;42.38;;;19.63;;
18997;SDS011;9632;51.018;4.284;2023-05-10T04:26:51;35.78;;;18.40;;
18997;SDS011;9632;51.018;4.284;2023-05-10T04:29:17;39.03;;;18.65;;
18997;SDS011;9632;51.018;4.284;2023-05-10T04:31:42;40.65;;;19.17;;
18997;SDS011;9632;51.018;4.284;2023-05-10T04:34:08;38.00;;;18.20;;
18997;SDS011;9632;51.018;4.284;2023-05-10T04:36:33;37.55;;;18.10;;
18997;SDS011;9632;51.018;4.284;2023-05-10T04:39:01;37.95;;;18.73;;
18997;SDS011;9632;51.018;4.284;2023-05-10T04:41:28;37.28;;;18.23;;
18997;SDS011;9632;51.018;4.284;2023-05-10T04:43:53;34.00;;;17.33;;
18997;SDS011;9632;51.018;4.284;2023-05-10T04:46:19;33.55;;;17.00;;
18997;SDS011;9632;51.018;4.284;2023-05-10T04:48:45;33.10;;;16.98;;
18997;SDS011;9632;51.018;4.284;2023-05-10T04:51:11;33.75;;;16.52;;
18997;SDS011;9632;51.018;4.284;2023-05-10T04:53:37;30.13;;;15.63;;
18997;SDS011;9632;51.018;4.284;2023-05-10T04:56:03;30.60;;;16.52;;
18997;SDS011;9632;51.018;4.284;2023-05-10T04:58:29;31.60;;;15.77;;
18997;SDS011;9632;51.018;4.284;2023-05-10T05:00:54;37.88;;;17.95;;
18997;SDS011;9632;51.018;4.284;2023-05-10T05:03:20;35.67;;;17.35;;
18997;SDS011;9632;51.018;4.284;2023-05-10T05:05:45;35.20;;;16.65;;
18997;SDS011;9632;51.018;4.284;2023-05-10T05:08:11;32.08;;;16.30;;
18997;SDS011;9632;51.018;4.284;2023-05-10T05:10:37;29.23;;;15.80;;
18997;SDS011;9632;51.018;4.284;2023-05-10T05:13:03;31.38;;;15.95;;
18997;SDS011;9632;51.018;4.284;2023-05-10T05:15:29;32.25;;;17.05;;
18997;SDS011;9632;51.018;4.284;2023-05-10T05:17:55;32.70;;;16.60;;
18997;SDS011;9632;51.018;4.284;2023-05-10T05:20:21;29.92;;;15.43;;
18997;SDS011;9632;51.018;4.284;2023-05-10T05:22:47;33.83;;;17.52;;
18997;SDS011;9632;51.018;4.284;2023-05-10T05:25:12;30.70;;;16.77;;
18997;SDS011;9632;51.018;4.284;2023-05-10T05:27:38;32.97;;;16.83;;
18997;SDS011;9632;51.018;4.284;2023-05-10T05:30:04;34.45;;;17.52;;
18997;SDS011;9632;51.018;4.284;2023-05-10T05:32:31;36.47;;;18.73;;
18997;SDS011;9632;51.018;4.284;2023-05-10T05:34:57;34.42;;;18.63;;
18997;SDS011;9632;51.018;4.284;2023-05-10T05:37:22;33.33;;;17.60;;
18997;SDS011;9632;51.018;4.284;2023-05-10T05:39:49;36.53;;;18.42;;
18997;SDS011;9632;51.018;4.284;2023-05-10T05:42:15;35.80;;;18.35;;
18997;SDS011;9632;51.018;4.284;2023-05-10T05:44:42;34.75;;;17.75;;
18997;SDS011;9632;51.018;4.284;2023-05-10T05:47:08;39.83;;;19.77;;
18997;SDS011;9632;51.018;4.284;2023-05-10T05:49:34;36.65;;;18.83;;
18997;SDS011;9632;51.018;4.284;2023-05-10T05:52:00;37.55;;;19.60;;
18997;SDS011;9632;51.018;4.284;2023-05-10T05:54:26;36.75;;;20.13;;
18997;SDS011;9632;51.018;4.284;2023-05-10T05:56:56;37.83;;;19.50;;
18997;SDS011;9632;51.018;4.284;2023-05-10T05:59:25;37.28;;;19.52;;
18997;SDS011;9632;51.018;4.284;2023-05-10T06:01:51;35.53;;;19.55;;
18997;SDS011;9632;51.018;4.284;2023-05-10T06:04:17;35.58;;;19.10;;
18997;SDS011;9632;51.018;4.284;2023-05-10T06:06:43;39.50;;;19.42;;
18997;SDS011;9632;51.018;4.284;2023-05-10T06:09:09;35.88;;;18.65;;
18997;SDS011;9632;51.018;4.284;2023-05-10T06:11:35;39.75;;;19.92;;
18997;SDS011;9632;51.018;4.284;2023-05-10T06:14:01;37.42;;;19.15;;
18997;SDS011;9632;51.018;4.284;2023-05-10T06:16:29;33.95;;;18.40;;
18997;SDS011;9632;51.018;4.284;2023-05-10T06:18:57;36.00;;;19.40;;
18997;SDS011;9632;51.018;4.284;2023-05-10T06:21:23;37.25;;;18.83;;
18997;SDS011;9632;51.018;4.284;2023-05-10T06:23:49;38.97;;;19.55;;
18997;SDS011;9632;51.018;4.284;2023-05-10T06:26:14;37.30;;;19.42;;
18997;SDS011;9632;51.018;4.284;2023-05-10T06:28:40;35.90;;;19.02;;
18997;SDS011;9632;51.018;4.284;2023-05-10T06:31:06;38.17;;;19.45;;
18997;SDS011;9632;51.018;4.284;2023-05-10T06:33:32;33.33;;;18.23;;
18997;SDS011;9632;51.018;4.284;2023-05-10T06:35:58;40.03;;;19.20;;
18997;SDS011;9632;51.018;4.284;2023-05-10T06:38:23;35.33;;;18.33;;
18997;SDS011;9632;51.018;4.284;2023-05-10T06:40:49;38.08;;;19.13;;
18997;SDS011;9632;51.018;4.284;2023-05-10T06:43:15;37.22;;;19.38;;
18997;SDS011;9632;51.018;4.284;2023-05-10T06:45:41;36.70;;;18.88;;
18997;SDS011;9632;51.018;4.284;2023-05-10T06:48:07;38.78;;;20.35;;
18997;SDS011;9632;51.018;4.284;2023-05-10T06:50:33;38.13;;;20.48;;
18997;SDS011;9632;51.018;4.284;2023-05-10T06:52:58;39.20;;;20.98;;
18997;SDS011;9632;51.018;4.284;2023-05-10T06:55:25;39.95;;;21.38;;
18997;SDS011;9632;51.018;4.284;2023-05-10T06:57:51;40.05;;;19.65;;
18997;SDS011;9632;51.018;4.284;2023-05-10T07:00:17;44.92;;;23.02;;
18997;SDS011;9632;51.018;4.284;2023-05-10T07:02:43;42.17;;;21.55;;
18997;SDS011;9632;51.018;4.284;2023-05-10T07:05:09;40.70;;;20.63;;
18997;SDS011;9632;51.018;4.284;2023-05-10T07:07:35;42.20;;;20.83;;
18997;SDS011;9632;51.018;4.284;2023-05-10T07:10:01;50.10;;;22.50;;
18997;SDS011;9632;51.018;4.284;2023-05-10T07:12:27;45.03;;;21.60;;
18997;SDS011;9632;51.018;4.284;2023-05-10T07:14:52;50.97;;;22.50;;
18997;SDS011;9632;51.018;4.284;2023-05-10T07:17:18;54.58;;;23.42;;
18997;SDS011;9632;51.018;4.284;2023-05-10T07:19:44;46.75;;;22.30;;
18997;SDS011;9632;51.018;4.284;2023-05-10T07:22:10;47.63;;;21.17;;
18997;SDS011;9632;51.018;4.284;2023-05-10T07:24:35;50.45;;;22.77;;
18997;SDS011;9632;51.018;4.284;2023-05-10T07:27:01;55.65;;;23.83;;
18997;SDS011;9632;51.018;4.284;2023-05-10T07:29:27;48.28;;;22.65;;
18997;SDS011;9632;51.018;4.284;2023-05-10T07:31:53;49.03;;;22.42;;
18997;SDS011;9632;51.018;4.284;2023-05-10T07:34:19;49.60;;;22.50;;
18997;SDS011;9632;51.018;4.284;2023-05-10T07:36:44;41.90;;;21.52;;
18997;SDS011;9632;51.018;4.284;2023-05-10T07:39:10;48.83;;;21.83;;
18997;SDS011;9632;51.018;4.284;2023-05-10T07:41:36;44.95;;;20.67;;
18997;SDS011;9632;51.018;4.284;2023-05-10T07:44:02;48.40;;;22.58;;
18997;SDS011;9632;51.018;4.284;2023-05-10T07:46:28;44.08;;;21.48;;
18997;SDS011;9632;51.018;4.284;2023-05-10T07:48:54;48.75;;;22.50;;
18997;SDS011;9632;51.018;4.284;2023-05-10T07:51:20;48.42;;;23.40;;
18997;SDS011;9632;51.018;4.284;2023-05-10T07:53:46;45.10;;;21.48;;
18997;SDS011;9632;51.018;4.284;2023-05-10T07:56:22;43.17;;;20.45;;
18997;SDS011;9632;51.018;4.284;2023-05-10T07:58:54;42.00;;;20.23;;
18997;SDS011;9632;51.018;4.284;2023-05-10T08:01:21;34.20;;;17.15;;
18997;SDS011;9632;51.018;4.284;2023-05-10T08:03:47;40.60;;;18.35;;
18997;SDS011;9632;51.018;4.284;2023-05-10T08:06:14;44.58;;;19.63;;
18997;SDS011;9632;51.018;4.284;2023-05-10T08:08:40;40.55;;;19.48;;
18997;SDS011;9632;51.018;4.284;2023-05-10T08:11:07;40.35;;;19.67;;
18997;SDS011;9632;51.018;4.284;2023-05-10T08:13:32;40.58;;;19.35;;
18997;SDS011;9632;51.018;4.284;2023-05-10T08:15:58;40.55;;;19.10;;
18997;SDS011;9632;51.018;4.284;2023-05-10T08:18:24;43.08;;;18.42;;
18997;SDS011;9632;51.018;4.284;2023-05-10T08:20:50;36.35;;;18.63;;
18997;SDS011;9632;51.018;4.284;2023-05-10T08:23:15;34.00;;;16.70;;
18997;SDS011;9632;51.018;4.284;2023-05-10T08:25:41;33.88;;;15.73;;
18997;SDS011;9632;51.018;4.284;2023-05-10T08:28:07;35.15;;;17.90;;
18997;SDS011;9632;51.018;4.284;2023-05-10T08:30:32;36.25;;;17.05;;
18997;SDS011;9632;51.018;4.284;2023-05-10T08:32:58;32.80;;;14.63;;
18997;SDS011;9632;51.018;4.284;2023-05-10T08:35:23;44.58;;;17.90;;
18997;SDS011;9632;51.018;4.284;2023-05-10T08:37:50;40.70;;;16.95;;
18997;SDS011;9632;51.018;4.284;2023-05-10T08:40:16;32.45;;;14.88;;
18997;SDS011;9632;51.018;4.284;2023-05-10T08:42:49;28.65;;;13.20;;
18997;SDS011;9632;51.018;4.284;2023-05-10T08:45:19;27.85;;;12.68;;
18997;SDS011;9632;51.018;4.284;2023-05-10T08:47:49;30.83;;;11.55;;
18997;SDS011;9632;51.018;4.284;2023-05-10T08:50:17;30.15;;;10.95;;
18997;SDS011;9632;51.018;4.284;2023-05-10T08:52:45;26.73;;;11.25;;
18997;SDS011;9632;51.018;4.284;2023-05-10T08:55:13;27.77;;;11.10;;
18997;SDS011;9632;51.018;4.284;2023-05-10T08:57:39;31.67;;;10.90;;
18997;SDS011;9632;51.018;4.284;2023-05-10T09:00:05;27.08;;;11.18;;
18997;SDS011;9632;51.018;4.284;2023-05-10T09:02:32;29.25;;;10.90;;
18997;SDS011;9632;51.018;4.284;2023-05-10T09:05:00;30.75;;;11.07;;
18997;SDS011;9632;51.018;4.284;2023-05-10T09:07:26;28.92;;;10.98;;
18997;SDS011;9632;51.018;4.284;2023-05-10T09:09:52;27.27;;;10.90;;
18997;SDS011;9632;51.018;4.284;2023-05-10T09:12:19;25.30;;;10.75;;
18997;SDS011;9632;51.018;4.284;2023-05-10T09:14:45;28.50;;;11.57;;
18997;SDS011;9632;51.018;4.284;2023-05-10T09:17:11;26.35;;;11.95;;
18997;SDS011;9632;51.018;4.284;2023-05-10T09:19:37;31.95;;;11.60;;
18997;SDS011;9632;51.018;4.284;2023-05-10T09:22:03;27.25;;;11.80;;
18997;SDS011;9632;51.018;4.284;2023-05-10T09:24:29;27.33;;;12.05;;
18997;SDS011;9632;51.018;4.284;2023-05-10T09:26:56;29.00;;;11.95;;
18997;SDS011;9632;51.018;4.284;2023-05-10T09:29:23;22.08;;;11.52;;
18997;SDS011;9632;51.018;4.284;2023-05-10T09:31:51;25.75;;;11.30;;
18997;SDS011;9632;51.018;4.284;2023-05-10T09:34:20;22.17;;;11.77;;
18997;SDS011;9632;51.018;4.284;2023-05-10T09:36:55;22.73;;;11.60;;
18997;SDS011;9632;51.018;4.284;2023-05-10T09:39:36;27.75;;;13.00;;
18997;SDS011;9632;51.018;4.284;2023-05-10T09:42:06;29.67;;;11.85;;
18997;SDS011;9632;51.018;4.284;2023-05-10T09:44:33;25.63;;;11.73;;
18997;SDS011;9632;51.018;4.284;2023-05-10T09:47:00;20.17;;;10.40;;
18997;SDS011;9632;51.018;4.284;2023-05-10T09:49:27;23.95;;;11.00;;
18997;SDS011;9632;51.018;4.284;2023-05-10T09:51:59;29.38;;;12.35;;
18997;SDS011;9632;51.018;4.284;2023-05-10T09:54:29;24.08;;;11.50;;
18997;SDS011;9632;51.018;4.284;2023-05-10T09:56:56;24.27;;;11.50;;
18997;SDS011;9632;51.018;4.284;2023-05-10T09:59:21;21.67;;;10.82;;
18997;SDS011;9632;51.018;4.284;2023-05-10T10:01:51;24.15;;;11.63;;
18997;SDS011;9632;51.018;4.284;2023-05-10T10:04:18;22.23;;;11.90;;
18997;SDS011;9632;51.018;4.284;2023-05-10T10:06:47;27.45;;;11.35;;
18997;SDS011;9632;51.018;4.284;2023-05-10T10:09:25;19.52;;;10.38;;
18997;SDS011;9632;51.018;4.284;2023-05-10T10:11:51;22.77;;;11.15;;
18997;SDS011;9632;51.018;4.284;2023-05-10T10:14:18;20.15;;;10.13;;
18997;SDS011;9632;51.018;4.284;2023-05-10T10:16:45;21.65;;;10.55;;
18997;SDS011;9632;51.018;4.284;2023-05-10T10:19:14;21.35;;;10.25;;
18997;SDS011;9632;51.018;4.284;2023-05-10T10:21:42;18.75;;;9.02;;
18997;SDS011;9632;51.018;4.284;2023-05-10T10:24:07;15.25;;;8.45;;
18997;SDS011;9632;51.018;4.284;2023-05-10T10:26:33;18.40;;;9.77;;
18997;SDS011;9632;51.018;4.284;2023-05-10T10:29:09;19.67;;;9.98;;
18997;SDS011;9632;51.018;4.284;2023-05-10T10:34:27;15.75;;;9.00;;
18997;SDS011;9632;51.018;4.284;2023-05-10T10:36:55;20.25;;;10.10;;
18997;SDS011;9632;51.018;4.284;2023-05-10T10:39:21;15.27;;;8.52;;
18997;SDS011;9632;51.018;4.284;2023-05-10T10:41:51;14.18;;;8.50;;
18997;SDS011;9632;51.018;4.284;2023-05-10T10:49:48;12.85;;;7.97;;
18997;SDS011;9632;51.018;4.284;2023-05-10T10:52:35;14.38;;;8.30;;
18997;SDS011;9632;51.018;4.284;2023-05-10T11:05:46;14.50;;;7.93;;
18997;SDS011;9632;51.018;4.284;2023-05-10T11:08:31;16.45;;;9.55;;
18997;SDS011;9632;51.018;4.284;2023-05-10T11:13:32;15.18;;;8.57;;
18997;SDS011;9632;51.018;4.284;2023-05-10T11:15:59;19.13;;;9.63;;
18997;SDS011;9632;51.018;4.284;2023-05-10T11:21:22;14.13;;;8.85;;
18997;SDS011;9632;51.018;4.284;2023-05-10T11:26:21;16.42;;;8.57;;
18997;SDS011;9632;51.018;4.284;2023-05-10T11:28:51;16.17;;;9.10;;
18997;SDS011;9632;51.018;4.284;2023-05-10T11:31:20;19.20;;;10.30;;
18997;SDS011;9632;51.018;4.284;2023-05-10T11:33:46;14.70;;;8.55;;
18997;SDS011;9632;51.018;4.284;2023-05-10T11:36:14;20.35;;;9.90;;
18997;SDS011;9632;51.018;4.284;2023-05-10T11:38:41;18.33;;;10.00;;
18997;SDS011;9632;51.018;4.284;2023-05-10T11:41:11;16.77;;;9.68;;
18997;SDS011;9632;51.018;4.284;2023-05-10T11:43:40;16.15;;;9.48;;
18997;SDS011;9632;51.018;4.284;2023-05-10T11:46:06;16.80;;;9.27;;
18997;SDS011;9632;51.018;4.284;2023-05-10T11:48:38;16.83;;;9.73;;
18997;SDS011;9632;51.018;4.284;2023-05-10T11:51:04;16.25;;;9.00;;
18997;SDS011;9632;51.018;4.284;2023-05-10T11:53:31;16.17;;;9.60;;
18997;SDS011;9632;51.018;4.284;2023-05-10T11:56:07;18.40;;;10.73;;
18997;SDS011;9632;51.018;4.284;2023-05-10T11:58:34;21.38;;;11.07;;
18997;SDS011;9632;51.018;4.284;2023-05-10T12:01:01;17.08;;;9.77;;
18997;SDS011;9632;51.018;4.284;2023-05-10T12:03:28;17.75;;;9.80;;
18997;SDS011;9632;51.018;4.284;2023-05-10T12:05:55;19.75;;;10.52;;
18997;SDS011;9632;51.018;4.284;2023-05-10T12:08:22;18.75;;;9.57;;
18997;SDS011;9632;51.018;4.284;2023-05-10T12:10:48;14.90;;;9.23;;
18997;SDS011;9632;51.018;4.284;2023-05-10T12:13:14;15.98;;;9.15;;
18997;SDS011;9632;51.018;4.284;2023-05-10T12:15:41;17.05;;;9.40;;
18997;SDS011;9632;51.018;4.284;2023-05-10T12:18:11;14.98;;;8.80;;
18997;SDS011;9632;51.018;4.284;2023-05-10T12:20:37;21.80;;;10.45;;
18997;SDS011;9632;51.018;4.284;2023-05-10T12:23:04;16.83;;;8.90;;
18997;SDS011;9632;51.018;4.284;2023-05-10T12:25:33;17.80;;;8.73;;
18997;SDS011;9632;51.018;4.284;2023-05-10T12:28:02;15.35;;;8.18;;
18997;SDS011;9632;51.018;4.284;2023-05-10T12:30:30;16.90;;;9.60;;
18997;SDS011;9632;51.018;4.284;2023-05-10T12:33:07;15.70;;;8.25;;
18997;SDS011;9632;51.018;4.284;2023-05-10T12:35:47;20.85;;;8.77;;
18997;SDS011;9632;51.018;4.284;2023-05-10T12:38:27;16.88;;;9.45;;
18997;SDS011;9632;51.018;4.284;2023-05-10T12:41:11;15.77;;;8.80;;
18997;SDS011;9632;51.018;4.284;2023-05-10T12:43:38;16.40;;;8.30;;
18997;SDS011;9632;51.018;4.284;2023-05-10T12:46:08;12.85;;;7.90;;
18997;SDS011;9632;51.018;4.284;2023-05-10T12:48:36;14.50;;;8.43;;
18997;SDS011;9632;51.018;4.284;2023-05-10T12:51:02;14.15;;;8.55;;
18997;SDS011;9632;51.018;4.284;2023-05-10T12:53:29;18.00;;;9.18;;
18997;SDS011;9632;51.018;4.284;2023-05-10T12:55:55;15.57;;;9.35;;
18997;SDS011;9632;51.018;4.284;2023-05-10T12:58:21;16.02;;;9.73;;
18997;SDS011;9632;51.018;4.284;2023-05-10T13:00:47;16.52;;;8.77;;
18997;SDS011;9632;51.018;4.284;2023-05-10T13:03:13;17.02;;;8.35;;
18997;SDS011;9632;51.018;4.284;2023-05-10T13:05:40;13.73;;;8.85;;
18997;SDS011;9632;51.018;4.284;2023-05-10T13:08:06;13.45;;;8.55;;
18997;SDS011;9632;51.018;4.284;2023-05-10T13:10:31;15.90;;;8.40;;
18997;SDS011;9632;51.018;4.284;2023-05-10T13:12:57;15.25;;;8.60;;
18997;SDS011;9632;51.018;4.284;2023-05-10T13:15:23;16.92;;;9.57;;
18997;SDS011;9632;51.018;4.284;2023-05-10T13:17:50;20.67;;;10.25;;
18997;SDS011;9632;51.018;4.284;2023-05-10T13:20:16;19.95;;;9.55;;
18997;SDS011;9632;51.018;4.284;2023-05-10T13:22:44;17.50;;;8.88;;
18997;SDS011;9632;51.018;4.284;2023-05-10T13:25:10;17.33;;;9.00;;
18997;SDS011;9632;51.018;4.284;2023-05-10T13:27:37;17.65;;;9.80;;
18997;SDS011;9632;51.018;4.284;2023-05-10T13:30:04;14.68;;;9.38;;
18997;SDS011;9632;51.018;4.284;2023-05-10T13:32:30;17.83;;;9.23;;
18997;SDS011;9632;51.018;4.284;2023-05-10T13:34:56;16.15;;;8.93;;
18997;SDS011;9632;51.018;4.284;2023-05-10T13:37:21;18.13;;;9.68;;
18997;SDS011;9632;51.018;4.284;2023-05-10T13:39:47;17.42;;;9.30;;
18997;SDS011;9632;51.018;4.284;2023-05-10T13:42:13;19.40;;;9.23;;
18997;SDS011;9632;51.018;4.284;2023-05-10T13:44:39;15.82;;;9.05;;
18997;SDS011;9632;51.018;4.284;2023-05-10T13:47:05;17.10;;;8.93;;
18997;SDS011;9632;51.018;4.284;2023-05-10T13:49:31;16.45;;;9.55;;
18997;SDS011;9632;51.018;4.284;2023-05-10T13:51:57;17.30;;;10.07;;
18997;SDS011;9632;51.018;4.284;2023-05-10T13:54:23;22.85;;;10.57;;
18997;SDS011;9632;51.018;4.284;2023-05-10T13:56:48;18.42;;;10.68;;
18997;SDS011;9632;51.018;4.284;2023-05-10T13:59:14;16.90;;;10.07;;
18997;SDS011;9632;51.018;4.284;2023-05-10T14:01:40;18.23;;;10.23;;
18997;SDS011;9632;51.018;4.284;2023-05-10T14:04:06;19.63;;;10.55;;
18997;SDS011;9632;51.018;4.284;2023-05-10T14:06:35;20.95;;;10.88;;
18997;SDS011;9632;51.018;4.284;2023-05-10T14:09:01;19.27;;;10.77;;
18997;SDS011;9632;51.018;4.284;2023-05-10T14:11:27;18.48;;;11.32;;
18997;SDS011;9632;51.018;4.284;2023-05-10T14:13:53;21.05;;;11.77;;
18997;SDS011;9632;51.018;4.284;2023-05-10T14:16:19;17.88;;;10.95;;
18997;SDS011;9632;51.018;4.284;2023-05-10T14:18:45;21.73;;;11.52;;
18997;SDS011;9632;51.018;4.284;2023-05-10T14:21:11;18.83;;;11.90;;
18997;SDS011;9632;51.018;4.284;2023-05-10T14:23:37;18.17;;;11.32;;
18997;SDS011;9632;51.018;4.284;2023-05-10T14:26:02;17.95;;;11.32;;
18997;SDS011;9632;51.018;4.284;2023-05-10T14:28:28;20.23;;;11.93;;
18997;SDS011;9632;51.018;4.284;2023-05-10T14:30:54;16.00;;;10.88;;
18997;SDS011;9632;51.018;4.284;2023-05-10T14:33:19;23.20;;;11.88;;
18997;SDS011;9632;51.018;4.284;2023-05-10T14:35:46;19.77;;;12.10;;
18997;SDS011;9632;51.018;4.284;2023-05-10T14:38:12;21.73;;;12.40;;
18997;SDS011;9632;51.018;4.284;2023-05-10T14:40:39;19.95;;;11.70;;
18997;SDS011;9632;51.018;4.284;2023-05-10T14:43:04;24.20;;;13.18;;
18997;SDS011;9632;51.018;4.284;2023-05-10T14:45:30;22.90;;;12.50;;
18997;SDS011;9632;51.018;4.284;2023-05-10T14:47:56;21.00;;;11.27;;
18997;SDS011;9632;51.018;4.284;2023-05-10T14:50:23;20.98;;;10.30;;
18997;SDS011;9632;51.018;4.284;2023-05-10T14:52:48;17.55;;;8.82;;
18997;SDS011;9632;51.018;4.284;2023-05-10T14:55:15;17.60;;;8.63;;
18997;SDS011;9632;51.018;4.284;2023-05-10T14:57:41;16.92;;;9.48;;
18997;SDS011;9632;51.018;4.284;2023-05-10T15:00:07;17.38;;;8.80;;
18997;SDS011;9632;51.018;4.284;2023-05-10T15:02:33;20.13;;;9.45;;
18997;SDS011;9632;51.018;4.284;2023-05-10T15:04:58;14.77;;;8.48;;
18997;SDS011;9632;51.018;4.284;2023-05-10T15:07:24;18.50;;;9.07;;
18997;SDS011;9632;51.018;4.284;2023-05-10T15:09:50;18.65;;;10.40;;
18997;SDS011;9632;51.018;4.284;2023-05-10T15:12:19;15.63;;;8.82;;
18997;SDS011;9632;51.018;4.284;2023-05-10T15:14:45;15.85;;;9.10;;
18997;SDS011;9632;51.018;4.284;2023-05-10T15:17:11;17.90;;;10.95;;